Time;durP1;ratioP1;P1;durP2;ratioP2;P2;SDS_P1;SDS_P2;PMS_P1;PMS_P2;Temp;Humidity;BMP_temperature;BMP_pressure;BME280_temperature;BME280_humidity;BME280_pressure;Samples;Min_cycle;Max_cycle;Signal;HPM_P1;HPM_P2
2023/05/13 00:01:04;;;;;;;8.38;7.57;;;11.00;99.90;;;;;;5111899;28;20023;-69
2023/05/13 00:03:30;;;;;;;9.13;7.80;;;11.10;99.90;;;;;;5112600;28;20513;-68
2023/05/13 00:05:56;;;;;;;9.20;8.30;;;11.00;99.90;;;;;;5111991;28;20032;-69
2023/05/13 00:08:22;;;;;;;9.30;7.85;;;11.00;99.90;;;;;;5112654;28;20359;-68
2023/05/13 00:10:48;;;;;;;9.32;8.32;;;11.00;99.90;;;;;;5115366;28;20026;-68
2023/05/13 00:13:14;;;;;;;11.70;8.32;;;11.00;99.90;;;;;;5116058;28;20098;-69
2023/05/13 00:15:40;;;;;;;9.20;8.07;;;11.00;99.90;;;;;;5115842;28;20065;-68
2023/05/13 00:18:06;;;;;;;9.07;8.18;;;11.00;99.90;;;;;;5115735;28;20069;-69
2023/05/13 00:20:31;;;;;;;8.93;7.95;;;11.00;99.90;;;;;;5115609;28;20024;-68
2023/05/13 00:22:57;;;;;;;9.13;8.00;;;11.00;99.90;;;;;;5115176;28;20394;-69
2023/05/13 00:25:23;;;;;;;9.63;7.88;;;11.00;99.90;;;;;;5115528;28;20028;-69
2023/05/13 00:27:48;;;;;;;10.05;8.85;;;11.00;99.90;;;;;;5115806;27;20045;-68
2023/05/13 00:30:14;;;;;;;12.73;8.23;;;11.00;99.90;;;;;;5115115;28;20020;-68
2023/05/13 00:32:40;;;;;;;11.80;8.50;;;11.00;99.90;;;;;;5115800;28;20102;-68
2023/05/13 00:35:05;;;;;;;10.25;8.02;;;11.10;99.90;;;;;;5115580;28;20095;-68
2023/05/13 00:37:31;;;;;;;10.30;8.55;;;11.10;99.90;;;;;;5115182;28;20470;-68
2023/05/13 00:39:57;;;;;;;11.02;8.82;;;11.10;99.90;;;;;;5115475;28;20019;-74
2023/05/13 00:42:23;;;;;;;9.70;8.13;;;11.10;99.90;;;;;;5115314;28;20424;-68
2023/05/13 00:44:48;;;;;;;9.45;8.45;;;11.10;99.90;;;;;;5115118;28;20040;-69
2023/05/13 00:47:15;;;;;;;9.43;8.15;;;11.10;99.90;;;;;;5115158;28;20073;-68
2023/05/13 00:49:41;;;;;;;9.48;8.45;;;11.10;99.90;;;;;;5115108;28;20095;-67
2023/05/13 00:52:06;;;;;;;10.25;8.18;;;11.00;99.90;;;;;;5114979;28;20111;-68
2023/05/13 00:54:32;;;;;;;9.88;8.07;;;11.00;99.90;;;;;;5115333;28;20076;-69
2023/05/13 00:56:58;;;;;;;11.45;8.73;;;11.00;99.90;;;;;;5115039;28;20464;-68
2023/05/13 00:59:27;;;;;;;9.13;8.20;;;11.00;99.90;;;;;;5115193;28;20400;-68
2023/05/13 01:01:55;;;;;;;10.13;7.88;;;11.10;99.90;;;;;;5115150;28;20076;-68
2023/05/13 01:04:57;;;;;;;8.98;7.70;;;11.00;99.90;;;;;;5114786;28;20055;-68
2023/05/13 01:08:04;;;;;;;9.88;8.50;;;11.00;99.90;;;;;;5103326;28;20036;-68
2023/05/13 01:10:40;;;;;;;9.77;8.38;;;11.00;99.90;;;;;;5093769;28;20042;-68
2023/05/13 01:13:11;;;;;;;8.60;7.75;;;11.00;99.90;;;;;;5114562;28;20108;-68
2023/05/13 01:15:46;;;;;;;10.20;8.75;;;11.00;99.90;;;;;;5114932;28;20028;-68
2023/05/13 01:18:17;;;;;;;9.32;8.35;;;11.00;99.90;;;;;;5114278;28;20030;-68
2023/05/13 01:20:44;;;;;;;10.73;8.10;;;11.00;99.90;;;;;;5114565;28;20016;-69
2023/05/13 01:23:11;;;;;;;11.43;8.20;;;11.00;99.90;;;;;;5114197;28;20051;-69
2023/05/13 01:25:37;;;;;;;10.88;9.25;;;11.00;99.90;;;;;;5114737;27;20020;-69
2023/05/13 01:28:04;;;;;;;9.75;8.75;;;11.00;99.90;;;;;;5114232;28;20062;-71
2023/05/13 01:30:30;;;;;;;9.68;8.57;;;11.00;99.90;;;;;;5114671;28;20023;-69
2023/05/13 01:32:55;;;;;;;9.50;8.45;;;11.00;99.90;;;;;;5114936;28;20015;-67
2023/05/13 01:35:23;;;;;;;11.77;8.32;;;11.00;99.90;;;;;;5114201;28;20479;-69
2023/05/13 01:37:49;;;;;;;9.02;8.02;;;11.00;99.90;;;;;;5114885;28;20485;-69
2023/05/13 01:40:15;;;;;;;9.05;8.15;;;11.00;99.90;;;;;;5114067;28;20061;-70
2023/05/13 01:42:42;;;;;;;10.55;8.73;;;11.00;99.90;;;;;;5114426;28;20020;-70
2023/05/13 01:45:08;;;;;;;14.02;8.18;;;11.00;99.90;;;;;;5113795;28;20036;-69
2023/05/13 01:47:33;;;;;;;9.23;8.23;;;11.00;99.90;;;;;;5114034;27;20157;-68
2023/05/13 01:49:59;;;;;;;9.98;7.80;;;11.00;99.90;;;;;;5114167;28;20068;-69
2023/05/13 01:52:25;;;;;;;8.95;7.63;;;11.00;99.90;;;;;;5113729;27;20023;-68
2023/05/13 01:54:50;;;;;;;9.63;7.25;;;11.00;99.90;;;;;;5114147;28;20028;-68
2023/05/13 01:57:16;;;;;;;8.93;8.05;;;11.00;99.90;;;;;;5113459;28;20034;-68
2023/05/13 01:59:41;;;;;;;8.98;7.82;;;11.00;99.90;;;;;;5114070;28;20020;-69
2023/05/13 02:02:07;;;;;;;10.25;8.82;;;10.90;99.90;;;;;;5113642;28;20018;-70
2023/05/13 02:04:33;;;;;;;9.13;8.10;;;11.00;99.90;;;;;;5113817;28;20474;-70
2023/05/13 02:06:58;;;;;;;9.57;8.43;;;11.00;99.90;;;;;;5113942;28;20110;-68
2023/05/13 02:09:24;;;;;;;9.40;8.40;;;11.00;99.90;;;;;;5113199;28;20203;-67
2023/05/13 02:11:50;;;;;;;9.38;8.18;;;10.90;99.90;;;;;;5113662;28;20031;-68
2023/05/13 02:14:15;;;;;;;9.65;8.23;;;10.90;99.90;;;;;;5113438;28;20107;-67
2023/05/13 02:16:41;;;;;;;10.38;8.40;;;10.90;99.90;;;;;;5113842;28;20530;-69
2023/05/13 02:19:07;;;;;;;12.80;8.32;;;10.90;99.90;;;;;;5113292;28;20030;-70
2023/05/13 02:21:32;;;;;;;10.88;8.30;;;10.90;99.90;;;;;;5113759;28;20068;-69
2023/05/13 02:23:58;;;;;;;9.90;8.82;;;10.90;99.90;;;;;;5113627;28;20035;-68
2023/05/13 02:26:24;;;;;;;10.63;9.07;;;10.90;99.90;;;;;;5113095;28;20491;-69
2023/05/13 02:28:49;;;;;;;10.15;8.68;;;10.90;99.90;;;;;;5113594;28;20141;-68
2023/05/13 02:31:15;;;;;;;13.88;9.25;;;10.90;99.90;;;;;;5113178;28;20028;-69
2023/05/13 02:33:41;;;;;;;12.40;9.23;;;10.90;99.90;;;;;;5112244;28;20065;-69
2023/05/13 02:36:06;;;;;;;12.20;8.80;;;10.90;99.90;;;;;;5113109;28;20024;-70
2023/05/13 02:38:32;;;;;;;11.75;9.55;;;10.90;99.90;;;;;;5113135;28;20094;-68
2023/05/13 02:40:59;;;;;;;10.82;8.75;;;10.90;99.90;;;;;;5113402;28;20487;-69
2023/05/13 02:43:26;;;;;;;9.52;8.40;;;10.90;99.90;;;;;;5113024;28;20077;-69
2023/05/13 02:45:52;;;;;;;10.15;9.05;;;10.90;99.90;;;;;;5113141;28;20054;-68
2023/05/13 02:48:18;;;;;;;11.15;9.60;;;10.90;99.90;;;;;;5111761;28;20106;-69
2023/05/13 02:50:43;;;;;;;12.13;9.32;;;10.90;99.90;;;;;;5113238;28;20361;-68
2023/05/13 02:53:09;;;;;;;10.27;8.75;;;10.90;99.90;;;;;;5112866;28;20015;-69
2023/05/13 02:55:35;;;;;;;9.73;8.55;;;10.90;99.90;;;;;;5113255;28;20069;-68
2023/05/13 02:58:01;;;;;;;11.07;9.00;;;10.90;99.90;;;;;;5113474;28;20053;-68
2023/05/13 03:00:27;;;;;;;9.75;8.45;;;10.90;99.90;;;;;;5112697;28;20019;-70
2023/05/13 03:02:52;;;;;;;9.52;8.63;;;10.90;99.90;;;;;;5113150;28;20160;-68
2023/05/13 03:05:18;;;;;;;10.65;8.55;;;10.90;99.90;;;;;;5112469;28;20107;-68
2023/05/13 03:07:43;;;;;;;11.85;9.77;;;10.90;99.90;;;;;;5113017;28;20032;-68
2023/05/13 03:10:09;;;;;;;9.80;8.60;;;10.90;99.90;;;;;;5112439;28;20456;-69
2023/05/13 03:12:35;;;;;;;12.68;9.27;;;10.90;99.90;;;;;;5112943;28;20031;-69
2023/05/13 03:15:01;;;;;;;12.23;8.70;;;10.90;99.90;;;;;;5113015;28;20027;-68
2023/05/13 03:17:29;;;;;;;9.80;8.80;;;10.90;99.90;;;;;;5112560;28;20359;-69
2023/05/13 03:19:55;;;;;;;10.02;9.02;;;10.90;99.90;;;;;;5112881;28;20103;-69
2023/05/13 03:22:20;;;;;;;13.77;9.05;;;10.90;99.90;;;;;;5112294;28;20119;-68
2023/05/13 03:24:46;;;;;;;12.02;8.57;;;10.90;99.90;;;;;;5112951;28;20024;-68
2023/05/13 03:27:12;;;;;;;10.98;8.85;;;10.90;99.90;;;;;;5112327;28;20020;-69
2023/05/13 03:29:37;;;;;;;10.18;8.48;;;10.90;99.90;;;;;;5112900;28;20020;-68
2023/05/13 03:32:05;;;;;;;10.23;8.88;;;10.90;99.90;;;;;;5111654;28;20019;-69
2023/05/13 03:34:31;;;;;;;10.68;9.55;;;10.90;99.90;;;;;;5112479;28;20020;-69
2023/05/13 03:36:56;;;;;;;9.15;8.32;;;10.90;99.90;;;;;;5112945;28;20087;-68
2023/05/13 03:39:22;;;;;;;10.52;9.43;;;11.00;99.90;;;;;;5112165;28;20031;-68
2023/05/13 03:41:48;;;;;;;12.25;9.05;;;10.90;99.90;;;;;;5112844;28;20043;-68
2023/05/13 03:44:13;;;;;;;10.45;9.07;;;10.90;99.90;;;;;;5112677;28;20337;-69
2023/05/13 03:46:39;;;;;;;10.95;9.48;;;11.00;99.90;;;;;;5116479;28;20035;-68
2023/05/13 03:49:04;;;;;;;11.38;8.90;;;11.00;99.90;;;;;;5116782;28;20058;-68
2023/05/13 03:51:31;;;;;;;10.55;9.50;;;10.90;99.90;;;;;;5115955;28;20022;-68
2023/05/13 03:53:57;;;;;;;13.48;10.05;;;11.00;99.90;;;;;;5116481;28;20024;-68
2023/05/13 03:56:23;;;;;;;15.10;10.00;;;10.90;99.90;;;;;;5115803;28;20024;-68
2023/05/13 03:58:48;;;;;;;10.75;9.10;;;10.90;99.90;;;;;;5116467;28;20073;-68
2023/05/13 04:01:14;;;;;;;10.82;9.15;;;10.90;99.90;;;;;;5115816;28;20023;-69
2023/05/13 04:03:41;;;;;;;10.35;9.23;;;10.90;99.90;;;;;;5116368;28;20103;-68
2023/05/13 04:06:07;;;;;;;15.65;10.15;;;11.00;99.90;;;;;;5116185;28;20041;-68
2023/05/13 04:08:33;;;;;;;13.93;10.57;;;10.90;99.90;;;;;;5115845;28;20104;-68
2023/05/13 04:10:58;;;;;;;15.35;9.98;;;10.90;99.90;;;;;;5116117;28;20027;-68
2023/05/13 04:13:24;;;;;;;10.77;9.60;;;10.90;99.90;;;;;;5115729;28;20020;-68
2023/05/13 04:15:50;;;;;;;10.95;9.75;;;10.90;99.90;;;;;;5116158;28;20030;-68
2023/05/13 04:18:15;;;;;;;14.18;10.05;;;10.90;99.90;;;;;;5115706;28;20062;-68
2023/05/13 04:20:41;;;;;;;11.98;10.70;;;10.90;99.90;;;;;;5116161;28;20508;-68
2023/05/13 04:23:07;;;;;;;13.70;11.18;;;10.90;99.90;;;;;;5115967;28;20113;-68
2023/05/13 04:25:35;;;;;;;14.07;11.05;;;10.90;99.90;;;;;;5115468;28;20144;-67
2023/05/13 04:28:01;;;;;;;12.73;10.07;;;10.90;99.90;;;;;;5116038;28;20030;-69
2023/05/13 04:30:26;;;;;;;15.05;9.95;;;10.90;99.90;;;;;;5115464;28;20367;-68
2023/05/13 04:32:52;;;;;;;12.98;10.55;;;10.90;99.90;;;;;;5115535;28;20360;-68
2023/05/13 04:35:18;;;;;;;14.07;11.00;;;10.90;99.90;;;;;;5115098;28;20020;-68
2023/05/13 04:37:43;;;;;;;12.88;11.55;;;10.90;99.90;;;;;;5114851;28;20076;-68
2023/05/13 04:40:10;;;;;;;16.20;11.38;;;10.90;99.90;;;;;;5115606;28;20107;-69
2023/05/13 04:42:35;;;;;;;13.63;11.48;;;10.90;99.90;;;;;;5115056;28;20023;-68
2023/05/13 04:45:01;;;;;;;14.05;11.05;;;10.90;99.90;;;;;;5115201;28;20096;-68
2023/05/13 04:47:27;;;;;;;13.20;11.18;;;10.90;99.90;;;;;;5114558;28;20080;-69
2023/05/13 04:49:52;;;;;;;12.68;10.75;;;10.90;99.90;;;;;;5115125;28;20440;-69
2023/05/13 04:52:18;;;;;;;14.10;11.10;;;10.90;99.90;;;;;;5114892;28;20027;-69
2023/05/13 04:54:44;;;;;;;13.00;10.98;;;10.90;99.90;;;;;;5115389;28;20019;-68
2023/05/13 04:57:09;;;;;;;14.77;11.02;;;11.00;99.90;;;;;;5115347;28;20528;-69
2023/05/13 04:59:35;;;;;;;12.50;11.18;;;11.00;99.90;;;;;;5113563;28;20023;-69
2023/05/13 05:02:01;;;;;;;12.57;11.27;;;11.00;99.90;;;;;;5115397;28;20464;-68
2023/05/13 05:04:27;;;;;;;12.32;11.05;;;11.00;99.90;;;;;;5114787;28;20031;-68
2023/05/13 05:06:53;;;;;;;12.18;10.32;;;11.00;99.90;;;;;;5115050;28;20472;-68
2023/05/13 05:09:18;;;;;;;12.15;10.63;;;11.00;99.90;;;;;;5114565;28;20029;-69
2023/05/13 05:11:44;;;;;;;13.60;11.32;;;11.00;99.90;;;;;;5114990;28;20026;-68
2023/05/13 05:14:10;;;;;;;18.60;11.45;;;11.00;99.90;;;;;;5114996;28;20107;-70
2023/05/13 05:16:35;;;;;;;15.35;10.65;;;11.00;99.90;;;;;;5114322;28;20027;-68
2023/05/13 05:19:01;;;;;;;12.65;11.27;;;11.00;99.90;;;;;;5114906;28;20020;-68
2023/05/13 05:21:27;;;;;;;14.07;10.77;;;11.10;99.90;;;;;;5114284;28;20020;-69
2023/05/13 05:23:52;;;;;;;12.02;10.23;;;11.10;99.90;;;;;;5115074;28;20077;-68
2023/05/13 05:26:18;;;;;;;11.55;9.63;;;11.10;99.90;;;;;;5114572;28;20027;-76
2023/05/13 05:28:44;;;;;;;11.10;10.00;;;11.10;99.90;;;;;;5114056;28;20027;-68
2023/05/13 05:31:10;;;;;;;12.35;11.10;;;11.10;99.90;;;;;;5114492;28;20486;-69
2023/05/13 05:33:36;;;;;;;13.00;10.48;;;11.20;99.90;;;;;;5113887;28;20060;-69
2023/05/13 05:36:02;;;;;;;13.80;10.80;;;11.10;99.90;;;;;;5114370;28;20075;-68
2023/05/13 05:38:28;;;;;;;15.07;10.90;;;11.10;99.90;;;;;;5114058;28;20024;-69
2023/05/13 05:40:54;;;;;;;14.38;10.23;;;11.20;99.90;;;;;;5114105;28;20030;-68
2023/05/13 05:43:19;;;;;;;15.88;12.05;;;11.20;99.90;;;;;;5114484;28;20055;-74
2023/05/13 05:45:45;;;;;;;13.38;10.30;;;11.20;99.90;;;;;;5113760;28;20055;-69
2023/05/13 05:48:11;;;;;;;13.73;10.98;;;11.20;99.90;;;;;;5113806;28;20072;-71
2023/05/13 05:50:37;;;;;;;13.68;11.32;;;11.20;99.90;;;;;;5113512;28;20024;-68
2023/05/13 05:53:03;;;;;;;12.98;10.93;;;11.20;99.90;;;;;;5113814;28;20020;-68
2023/05/13 05:55:30;;;;;;;13.88;10.02;;;11.20;99.90;;;;;;5113335;28;20023;-69
2023/05/13 05:57:56;;;;;;;11.52;10.02;;;11.30;99.90;;;;;;5113677;28;20031;-69
2023/05/13 06:00:23;;;;;;;12.70;11.18;;;11.30;99.90;;;;;;5113393;28;20034;-77
2023/05/13 06:02:49;;;;;;;14.45;10.48;;;11.30;99.90;;;;;;5113695;28;20023;-69
2023/05/13 06:05:14;;;;;;;12.40;11.05;;;11.30;99.90;;;;;;5113649;28;20023;-69
2023/05/13 06:07:40;;;;;;;12.85;11.23;;;11.40;99.90;;;;;;5111988;28;20111;-69
2023/05/13 06:10:06;;;;;;;14.60;11.10;;;11.40;99.90;;;;;;5113568;28;20030;-69
2023/05/13 06:12:32;;;;;;;13.98;11.25;;;11.40;99.90;;;;;;5113050;28;20460;-69
2023/05/13 06:14:58;;;;;;;14.20;10.48;;;11.40;99.90;;;;;;5113411;28;20039;-68
2023/05/13 06:17:24;;;;;;;16.00;12.00;;;11.40;99.90;;;;;;5113128;28;20028;-76
2023/05/13 06:19:50;;;;;;;14.48;11.10;;;11.40;99.90;;;;;;5113425;28;20055;-69
2023/05/13 06:22:15;;;;;;;13.43;10.95;;;11.40;99.90;;;;;;5112927;28;20024;-68
2023/05/13 06:24:43;;;;;;;13.27;11.57;;;11.50;99.90;;;;;;5112736;28;20024;-68
2023/05/13 06:27:10;;;;;;;13.90;11.45;;;11.50;99.90;;;;;;5112839;28;20472;-68
2023/05/13 06:29:36;;;;;;;13.60;11.82;;;11.50;99.90;;;;;;5113032;28;20023;-69
2023/05/13 06:32:02;;;;;;;13.10;11.70;;;11.50;99.90;;;;;;5113395;28;20117;-69
2023/05/13 06:34:28;;;;;;;13.10;11.68;;;11.60;99.90;;;;;;5112704;28;20028;-69
2023/05/13 06:36:53;;;;;;;14.65;12.48;;;11.50;99.90;;;;;;5112808;28;20027;-68
2023/05/13 06:39:19;;;;;;;12.02;10.73;;;11.60;99.90;;;;;;5112907;28;20486;-69
2023/05/13 06:41:45;;;;;;;13.05;10.65;;;11.60;99.90;;;;;;5112863;28;20055;-69
2023/05/13 06:44:10;;;;;;;15.30;11.07;;;11.60;99.90;;;;;;5113335;28;20098;-69
2023/05/13 06:46:36;;;;;;;14.48;11.40;;;11.60;99.90;;;;;;5112485;28;20031;-69
2023/05/13 06:49:01;;;;;;;14.02;11.52;;;11.60;99.90;;;;;;5113185;28;20027;-69
2023/05/13 06:51:27;;;;;;;11.35;10.02;;;11.60;99.90;;;;;;5111419;28;20027;-69
2023/05/13 06:53:54;;;;;;;11.77;10.35;;;11.60;99.90;;;;;;5113175;28;20039;-68
2023/05/13 06:56:21;;;;;;;11.38;10.13;;;11.60;99.90;;;;;;5112990;28;20027;-68
2023/05/13 06:58:48;;;;;;;11.57;10.10;;;11.70;99.90;;;;;;5112648;28;20503;-67
2023/05/13 07:01:15;;;;;;;15.70;10.25;;;11.70;99.90;;;;;;5112938;28;20114;-69
2023/05/13 07:03:40;;;;;;;11.65;10.45;;;11.70;99.90;;;;;;5112536;28;20057;-69
2023/05/13 07:06:06;;;;;;;13.07;10.30;;;11.70;99.90;;;;;;5112503;28;20158;-70
2023/05/13 07:08:31;;;;;;;11.10;10.00;;;11.60;99.90;;;;;;5112623;28;20032;-70
2023/05/13 07:10:57;;;;;;;11.32;10.15;;;11.60;99.90;;;;;;5112864;28;20410;-68
2023/05/13 07:13:23;;;;;;;14.52;10.70;;;11.60;99.90;;;;;;5113150;28;20023;-70
2023/05/13 07:15:49;;;;;;;14.15;10.48;;;11.60;99.90;;;;;;5112599;28;20076;-69
2023/05/13 07:18:15;;;;;;;12.30;10.57;;;11.60;99.90;;;;;;5113125;28;20032;-68
2023/05/13 07:20:59;;;;;;;11.30;10.20;;;11.60;99.90;;;;;;5116339;28;20471;-70
2023/05/13 07:23:25;;;;;;;12.85;11.55;;;11.70;99.90;;;;;;5117062;28;20047;-67
2023/05/13 07:25:51;;;;;;;16.85;11.23;;;11.60;99.90;;;;;;5116404;28;20055;-69
2023/05/13 07:28:19;;;;;;;13.10;11.70;;;11.70;99.90;;;;;;5116893;28;20036;-69
2023/05/13 07:30:45;;;;;;;12.23;10.93;;;11.60;99.90;;;;;;5116569;28;20024;-69
2023/05/13 07:33:11;;;;;;;12.35;11.15;;;11.70;99.90;;;;;;5116884;28;20027;-69
2023/05/13 07:35:37;;;;;;;14.57;10.65;;;11.70;99.90;;;;;;5116080;28;20515;-69
2023/05/13 07:38:03;;;;;;;14.82;10.85;;;11.70;99.90;;;;;;5116316;28;20101;-69
2023/05/13 07:40:28;;;;;;;14.85;10.35;;;11.80;99.90;;;;;;5116477;28;20102;-74
2023/05/13 07:42:54;;;;;;;13.07;10.63;;;11.80;99.90;;;;;;5116569;28;20099;-69
2023/05/13 07:45:20;;;;;;;12.50;11.20;;;11.90;99.90;;;;;;5116748;28;20047;-69
2023/05/13 07:47:47;;;;;;;15.65;11.45;;;11.90;99.90;;;;;;5116113;28;20180;-69
2023/05/13 07:50:12;;;;;;;13.45;12.05;;;11.90;99.90;;;;;;5116434;28;20072;-69
2023/05/13 07:52:38;;;;;;;12.77;11.50;;;11.90;99.90;;;;;;5116207;28;20024;-69
2023/05/13 07:55:04;;;;;;;17.13;11.90;;;12.00;99.90;;;;;;5116510;28;20392;-69
2023/05/13 07:57:30;;;;;;;18.05;11.95;;;12.10;99.90;;;;;;5115428;28;20032;-72
2023/05/13 07:59:56;;;;;;;16.98;12.15;;;12.10;99.90;;;;;;5116202;28;20535;-70
2023/05/13 08:02:23;;;;;;;14.10;11.70;;;12.10;99.90;;;;;;5116065;28;20111;-69
2023/05/13 08:04:48;;;;;;;15.23;12.57;;;12.10;99.90;;;;;;5115658;28;20030;-69
2023/05/13 08:07:14;;;;;;;16.15;12.23;;;12.20;99.90;;;;;;5116137;28;20114;-69
2023/05/13 08:09:40;;;;;;;17.48;12.63;;;12.20;99.90;;;;;;5115638;28;20036;-69
2023/05/13 08:12:06;;;;;;;16.50;11.68;;;12.20;99.90;;;;;;5115797;28;20027;-69
2023/05/13 08:14:31;;;;;;;16.20;12.30;;;12.20;99.90;;;;;;5115903;28;20026;-70
2023/05/13 08:16:57;;;;;;;15.90;12.63;;;12.20;99.90;;;;;;5116159;28;20368;-69
2023/05/13 08:19:22;;;;;;;20.27;13.18;;;12.10;99.90;;;;;;5116080;28;20020;-69
2023/05/13 08:21:48;;;;;;;13.43;11.07;;;12.10;99.90;;;;;;5115227;28;20023;-69
2023/05/13 08:24:14;;;;;;;18.60;11.30;;;12.10;99.90;;;;;;5114688;28;20077;-69
2023/05/13 08:26:40;;;;;;;14.90;11.55;;;12.10;99.90;;;;;;5115112;28;20066;-69
2023/05/13 08:29:05;;;;;;;14.25;11.27;;;12.00;99.90;;;;;;5115429;28;20380;-69
2023/05/13 08:31:31;;;;;;;12.88;11.27;;;12.00;99.90;;;;;;5114767;28;20031;-69
2023/05/13 08:33:57;;;;;;;14.32;11.40;;;12.00;99.90;;;;;;5115437;28;20392;-70
2023/05/13 08:36:24;;;;;;;18.30;11.48;;;11.90;99.90;;;;;;5115049;28;20119;-69
2023/05/13 08:38:50;;;;;;;15.85;11.80;;;12.00;99.90;;;;;;5115061;28;20034;-69
2023/05/13 08:41:16;;;;;;;22.95;12.30;;;12.00;99.90;;;;;;5115227;28;20032;-69
2023/05/13 08:43:42;;;;;;;14.13;11.63;;;11.90;99.90;;;;;;5115043;28;20026;-70
2023/05/13 08:46:10;;;;;;;18.20;12.10;;;11.90;99.90;;;;;;5115629;28;20484;-69
2023/05/13 08:48:40;;;;;;;16.30;11.25;;;12.00;99.90;;;;;;5114720;28;20529;-70
2023/05/13 08:51:07;;;;;;;19.63;12.60;;;12.00;99.90;;;;;;5115216;28;20030;-69
2023/05/13 08:53:38;;;;;;;16.10;12.15;;;12.00;99.90;;;;;;5115159;27;20111;-67
2023/05/13 08:56:06;;;;;;;16.30;11.65;;;12.10;99.90;;;;;;5115229;28;20051;-69
2023/05/13 08:58:32;;;;;;;13.15;11.25;;;12.10;99.90;;;;;;5114842;28;20024;-69
2023/05/13 09:00:58;;;;;;;16.33;11.45;;;12.10;99.90;;;;;;5114701;28;20434;-69
2023/05/13 09:03:26;;;;;;;15.82;11.43;;;12.20;99.90;;;;;;5114934;28;20028;-68
2023/05/13 09:05:52;;;;;;;16.65;11.50;;;12.20;99.90;;;;;;5114528;28;20052;-69
2023/05/13 09:08:18;;;;;;;15.57;11.15;;;12.30;99.90;;;;;;5114659;28;20066;-68
2023/05/13 09:10:43;;;;;;;16.63;11.23;;;12.20;99.90;;;;;;5114560;28;20543;-69
2023/05/13 09:13:11;;;;;;;14.18;10.73;;;12.30;99.90;;;;;;5115019;28;20115;-68
2023/05/13 09:15:41;;;;;;;17.38;11.27;;;12.30;99.90;;;;;;5114126;28;20039;-70
2023/05/13 09:18:07;;;;;;;13.02;11.23;;;12.40;99.90;;;;;;5114945;28;20039;-68
2023/05/13 09:20:34;;;;;;;17.35;11.02;;;12.40;99.90;;;;;;5114642;28;20023;-70
2023/05/13 09:23:04;;;;;;;18.98;11.60;;;12.40;99.90;;;;;;5114259;28;20637;-70
2023/05/13 09:25:31;;;;;;;15.73;11.10;;;12.40;99.90;;;;;;5114810;28;20035;-69
2023/05/13 09:27:59;;;;;;;15.40;10.38;;;12.50;99.90;;;;;;5114082;28;20073;-69
2023/05/13 09:30:26;;;;;;;15.48;10.85;;;12.50;99.90;;;;;;5114428;28;20023;-69
2023/05/13 09:33:09;;;;;;;14.88;10.15;;;12.50;99.90;;;;;;5113941;28;20336;-69
2023/05/13 09:35:37;;;;;;;15.43;10.30;;;12.50;99.90;;;;;;5114419;28;20015;-69
2023/05/13 09:38:19;;;;;;;12.02;10.00;;;12.50;99.90;;;;;;5114160;28;20035;-69
2023/05/13 09:40:58;;;;;;;12.07;9.70;;;12.50;99.90;;;;;;5113882;28;20024;-69
2023/05/13 09:43:26;;;;;;;13.18;9.32;;;12.50;99.90;;;;;;5114460;28;20016;-69
2023/05/13 09:45:53;;;;;;;11.23;9.80;;;12.50;99.90;;;;;;5113877;28;20043;-69
2023/05/13 09:48:30;;;;;;;13.02;9.95;;;12.50;99.90;;;;;;5114102;28;20038;-69
2023/05/13 09:50:56;;;;;;;14.20;10.20;;;12.50;99.90;;;;;;5113385;28;20507;-69
2023/05/13 09:53:23;;;;;;;12.90;9.73;;;12.40;99.90;;;;;;5113791;28;20361;-70
2023/05/13 09:55:51;;;;;;;12.70;9.57;;;12.40;99.90;;;;;;5113844;28;20023;-69
2023/05/13 09:58:19;;;;;;;11.93;9.77;;;12.40;99.90;;;;;;5113893;28;20022;-69
2023/05/13 10:00:46;;;;;;;12.23;9.38;;;12.40;99.90;;;;;;5113502;28;20031;-70
2023/05/13 10:03:12;;;;;;;13.25;9.48;;;12.40;99.90;;;;;;5113664;28;20027;-70
2023/05/13 10:05:41;;;;;;;13.68;9.45;;;12.40;99.90;;;;;;5112160;28;20027;-69
2023/05/13 10:08:11;;;;;;;12.55;9.55;;;12.40;99.90;;;;;;5113867;28;20038;-70
2023/05/13 10:10:38;;;;;;;10.13;8.77;;;12.40;99.90;;;;;;5113574;28;20062;-70
2023/05/13 10:13:07;;;;;;;13.68;8.55;;;12.40;99.90;;;;;;5113718;28;20475;-69
2023/05/13 10:15:33;;;;;;;8.88;7.97;;;12.40;99.90;;;;;;5113631;28;20123;-68
2023/05/13 10:18:00;;;;;;;11.73;8.55;;;12.40;99.90;;;;;;5113014;28;20031;-69
2023/05/13 10:20:26;;;;;;;10.93;8.32;;;12.40;99.90;;;;;;5113479;28;20022;-70
2023/05/13 10:22:53;;;;;;;10.90;8.10;;;12.50;99.90;;;;;;5113229;28;20113;-70
2023/05/13 10:25:19;;;;;;;9.18;8.10;;;12.40;99.90;;;;;;5113204;28;20491;-69
2023/05/13 10:27:46;;;;;;;8.82;7.53;;;12.40;99.90;;;;;;5112594;28;20460;-70
2023/05/13 10:30:12;;;;;;;10.95;8.25;;;12.40;99.90;;;;;;5113542;28;20023;-70
2023/05/13 10:32:39;;;;;;;12.55;9.13;;;12.50;99.90;;;;;;5113367;28;20096;-70
2023/05/13 10:35:10;;;;;;;13.63;9.45;;;12.50;99.90;;;;;;5111115;28;20417;-69
2023/05/13 10:38:03;;;;;;;10.60;9.02;;;12.50;99.90;;;;;;5112909;28;20379;-69
2023/05/13 10:40:50;;;;;;;16.75;9.02;;;12.50;99.90;;;;;;5113308;28;20015;-69
2023/05/13 10:43:25;;;;;;;9.25;8.25;;;12.50;99.90;;;;;;5113029;28;20440;-69
2023/05/13 10:45:56;;;;;;;10.80;7.93;;;12.50;99.90;;;;;;5112433;28;20075;-69
2023/05/13 10:48:22;;;;;;;9.13;7.80;;;12.50;99.90;;;;;;5113210;28;20050;-69
2023/05/13 10:50:56;;;;;;;11.55;8.95;;;12.50;99.90;;;;;;5112720;28;20031;-69
2023/05/13 10:53:31;;;;;;;9.48;8.45;;;12.50;99.90;;;;;;5112586;28;20020;-69
2023/05/13 10:55:58;;;;;;;10.18;8.48;;;12.50;99.90;;;;;;5112584;28;20464;-69
2023/05/13 10:58:32;;;;;;;12.60;8.68;;;12.50;99.90;;;;;;5113207;28;20035;-69
2023/05/13 11:01:24;;;;;;;12.05;8.75;;;12.60;99.90;;;;;;5112754;28;20053;-69
2023/05/13 11:03:59;;;;;;;25.20;9.55;;;12.60;99.90;;;;;;5112734;28;20111;-69
2023/05/13 11:06:36;;;;;;;12.38;9.65;;;12.60;99.90;;;;;;5113105;28;20031;-69
2023/05/13 11:09:05;;;;;;;11.85;9.10;;;12.60;99.90;;;;;;5112469;28;20028;-69
2023/05/13 11:11:33;;;;;;;13.38;9.13;;;12.60;99.90;;;;;;5112858;28;20031;-69
2023/05/13 11:13:58;;;;;;;14.13;8.70;;;12.60;99.90;;;;;;5112088;28;20482;-69
2023/05/13 11:16:24;;;;;;;13.70;9.18;;;12.60;99.90;;;;;;5112655;28;20031;-69
2023/05/13 11:18:51;;;;;;;12.82;8.55;;;12.60;99.90;;;;;;5112357;28;20039;-69
2023/05/13 11:21:28;;;;;;;10.68;8.60;;;12.60;99.90;;;;;;5112930;28;20066;-69
2023/05/13 11:24:16;;;;;;;13.00;8.23;;;12.70;99.90;;;;;;5112490;28;20035;-69
2023/05/13 11:26:48;;;;;;;12.52;8.82;;;12.70;99.90;;;;;;5112894;28;20019;-69
2023/05/13 11:29:14;;;;;;;11.65;9.43;;;12.70;99.90;;;;;;5112833;28;20412;-69
2023/05/13 11:31:47;;;;;;;11.82;9.05;;;12.70;99.90;;;;;;5111623;28;20028;-69
2023/05/13 11:34:15;;;;;;;10.30;8.57;;;12.70;99.90;;;;;;5112611;28;20027;-69
2023/05/13 11:36:47;;;;;;;13.75;8.75;;;12.70;99.90;;;;;;5112653;28;20024;-69
2023/05/13 11:39:18;;;;;;;12.73;8.88;;;12.70;99.90;;;;;;5112714;28;20376;-69
2023/05/13 11:41:48;;;;;;;15.57;9.25;;;12.70;99.90;;;;;;5112408;28;20020;-69
2023/05/13 11:44:19;;;;;;;10.50;8.70;;;12.70;99.90;;;;;;5112532;28;20058;-69
2023/05/13 11:47:04;;;;;;;;;;;12.70;99.90;;;;;;5113050;28;20114;-69
2023/05/13 11:49:41;;;;;;;11.75;8.68;;;12.70;99.90;;;;;;5112643;28;19911;-69
2023/05/13 11:52:14;;;;;;;9.23;8.10;;;12.70;99.90;;;;;;5112262;28;20035;-69
2023/05/13 11:54:52;;;;;;;10.40;8.00;;;12.80;99.90;;;;;;5112462;28;20028;-69
2023/05/13 11:57:19;;;;;;;10.98;7.72;;;12.80;99.90;;;;;;5112467;28;20039;-69
2023/05/13 12:00:11;;;;;;;9.93;7.63;;;12.90;99.90;;;;;;5112100;28;20051;-69
2023/05/13 12:02:39;;;;;;;10.18;8.52;;;13.00;99.90;;;;;;5105523;28;20077;-69
2023/05/13 12:05:08;;;;;;;11.05;7.97;;;13.10;99.90;;;;;;5112447;28;20118;-69
2023/05/13 12:07:36;;;;;;;12.63;8.50;;;13.20;99.90;;;;;;5116117;28;20032;-69
2023/05/13 12:10:03;;;;;;;11.60;8.32;;;13.20;99.90;;;;;;5115721;28;20027;-69
2023/05/13 12:12:31;;;;;;;10.85;7.85;;;13.20;99.90;;;;;;5116181;28;20020;-69
2023/05/13 12:15:06;;;;;;;9.32;7.88;;;13.20;99.90;;;;;;5115374;28;20372;-69
2023/05/13 12:17:32;;;;;;;12.07;6.97;;;13.20;99.90;;;;;;5115888;28;20035;-69
2023/05/13 12:20:11;;;;;;;9.73;7.40;;;13.20;99.90;;;;;;5115546;27;20024;-70
2023/05/13 12:22:48;;;;;;;9.85;7.57;;;13.20;99.90;;;;;;5115653;28;20035;-69
2023/05/13 12:25:35;;;;;;;11.32;7.32;;;13.20;99.90;;;;;;5115630;28;20050;-68
2023/05/13 12:28:20;;;;;;;11.02;7.88;;;13.20;99.90;;;;;;5115322;28;20471;-68
2023/05/13 12:30:50;;;;;;;11.02;7.00;;;13.20;99.90;;;;;;5115314;28;20030;-68
2023/05/13 12:33:23;;;;;;;10.15;7.40;;;13.20;99.90;;;;;;5115939;28;20024;-68
2023/05/13 12:35:51;;;;;;;11.88;9.70;;;13.20;99.90;;;;;;5115759;28;20368;-68
2023/05/13 12:38:19;;;;;;;9.27;8.02;;;13.30;99.90;;;;;;5115565;28;20020;-69